sensor_id;sensor_type;location;lat;lon;timestamp;pressure;altitude;pressure_sealevel;temperature;humidity
48964;BME280;34776;48.180;16.420;2023-04-25T00:01:35;99064.75;;;11.75;62.29
48964;BME280;34776;48.180;16.420;2023-04-25T00:04:01;99051.34;;;11.76;62.20
48964;BME280;34776;48.180;16.420;2023-04-25T00:06:27;99053.91;;;11.78;62.22
48964;BME280;34776;48.180;16.420;2023-04-25T00:08:53;99055.59;;;11.79;62.18
48964;BME280;34776;48.180;16.420;2023-04-25T00:11:19;99060.06;;;11.78;62.31
48964;BME280;34776;48.180;16.420;2023-04-25T00:13:44;99050.50;;;11.76;61.82
48964;BME280;34776;48.180;16.420;2023-04-25T00:16:11;99047.94;;;11.74;61.92
48964;BME280;34776;48.180;16.420;2023-04-25T00:18:39;99054.41;;;11.70;62.04
48964;BME280;34776;48.180;16.420;2023-04-25T00:21:04;99054.72;;;11.66;62.16
48964;BME280;34776;48.180;16.420;2023-04-25T00:23:31;99047.50;;;11.68;62.06
48964;BME280;34776;48.180;16.420;2023-04-25T00:25:56;99042.19;;;11.68;62.11
48964;BME280;34776;48.180;16.420;2023-04-25T00:28:22;99047.50;;;11.68;61.97
48964;BME280;34776;48.180;16.420;2023-04-25T00:30:47;99035.34;;;11.64;61.95
48964;BME280;34776;48.180;16.420;2023-04-25T00:33:12;99040.88;;;11.61;61.97
48964;BME280;34776;48.180;16.420;2023-04-25T00:35:37;99043.53;;;11.61;62.01
48964;BME280;34776;48.180;16.420;2023-04-25T00:38:03;99044.50;;;11.60;61.95
48964;BME280;34776;48.180;16.420;2023-04-25T00:40:28;99037.47;;;11.58;61.98
48964;BME280;34776;48.180;16.420;2023-04-25T00:42:54;99033.84;;;11.60;61.83
48964;BME280;34776;48.180;16.420;2023-04-25T00:45:20;99034.19;;;11.55;61.43
48964;BME280;34776;48.180;16.420;2023-04-25T00:47:45;99028.94;;;11.53;61.82
48964;BME280;34776;48.180;16.420;2023-04-25T00:50:12;99039.38;;;11.56;61.81
48964;BME280;34776;48.180;16.420;2023-04-25T00:52:40;99030.63;;;11.54;61.46
48964;BME280;34776;48.180;16.420;2023-04-25T00:55:07;99044.16;;;11.51;61.68
48964;BME280;34776;48.180;16.420;2023-04-25T00:57:33;99038.00;;;11.51;61.74
48964;BME280;34776;48.180;16.420;2023-04-25T00:59:59;99032.56;;;11.52;61.49
48964;BME280;34776;48.180;16.420;2023-04-25T01:02:25;99039.78;;;11.50;61.62
48964;BME280;34776;48.180;16.420;2023-04-25T01:04:51;99029.38;;;11.47;61.48
48964;BME280;34776;48.180;16.420;2023-04-25T01:07:16;99028.19;;;11.51;61.37
48964;BME280;34776;48.180;16.420;2023-04-25T01:09:42;99034.69;;;11.47;61.32
48964;BME280;34776;48.180;16.420;2023-04-25T01:12:07;99037.34;;;11.47;61.40
48964;BME280;34776;48.180;16.420;2023-04-25T01:14:32;99031.81;;;11.50;61.50
48964;BME280;34776;48.180;16.420;2023-04-25T01:16:58;99025.53;;;11.51;61.12
48964;BME280;34776;48.180;16.420;2023-04-25T01:19:24;99026.59;;;11.49;61.17
48964;BME280;34776;48.180;16.420;2023-04-25T01:21:50;99028.63;;;11.45;61.04
48964;BME280;34776;48.180;16.420;2023-04-25T01:24:15;99030.31;;;11.46;61.44
48964;BME280;34776;48.180;16.420;2023-04-25T01:26:42;99039.03;;;11.48;61.33
48964;BME280;34776;48.180;16.420;2023-04-25T01:29:17;99033.84;;;11.47;61.28
48964;BME280;34776;48.180;16.420;2023-04-25T01:31:44;99031.06;;;11.48;61.51
48964;BME280;34776;48.180;16.420;2023-04-25T01:34:10;99040.75;;;11.49;61.47
48964;BME280;34776;48.180;16.420;2023-04-25T01:36:35;99032.97;;;11.46;61.08
48964;BME280;34776;48.180;16.420;2023-04-25T01:39:01;99037.53;;;11.44;61.07
48964;BME280;34776;48.180;16.420;2023-04-25T01:41:27;99029.56;;;11.44;60.97
48964;BME280;34776;48.180;16.420;2023-04-25T01:43:52;99029.78;;;11.41;60.89
48964;BME280;34776;48.180;16.420;2023-04-25T01:46:17;99028.81;;;11.42;60.84
48964;BME280;34776;48.180;16.420;2023-04-25T01:48:43;99024.22;;;11.44;60.93
48964;BME280;34776;48.180;16.420;2023-04-25T01:51:09;99029.56;;;11.44;60.43
48964;BME280;34776;48.180;16.420;2023-04-25T01:53:36;99017.22;;;11.43;60.65
48964;BME280;34776;48.180;16.420;2023-04-25T01:56:02;99023.72;;;11.39;60.53
48964;BME280;34776;48.180;16.420;2023-04-25T01:58:28;99023.63;;;11.41;60.40
48964;BME280;34776;48.180;16.420;2023-04-25T02:00:53;99026.16;;;11.42;60.40
48964;BME280;34776;48.180;16.420;2023-04-25T02:03:18;99021.69;;;11.43;60.26
48964;BME280;34776;48.180;16.420;2023-04-25T02:05:44;99020.81;;;11.42;60.30
48964;BME280;34776;48.180;16.420;2023-04-25T02:08:09;99031.47;;;11.42;60.36
48964;BME280;34776;48.180;16.420;2023-04-25T02:10:35;99026.72;;;11.47;60.08
48964;BME280;34776;48.180;16.420;2023-04-25T02:13:01;99021.78;;;11.41;59.91
48964;BME280;34776;48.180;16.420;2023-04-25T02:15:26;99028.28;;;11.37;59.81
48964;BME280;34776;48.180;16.420;2023-04-25T02:17:51;99019.56;;;11.35;60.04
48964;BME280;34776;48.180;16.420;2023-04-25T02:20:18;99020.53;;;11.34;60.03
48964;BME280;34776;48.180;16.420;2023-04-25T02:22:45;99024.88;;;11.35;60.09
48964;BME280;34776;48.180;16.420;2023-04-25T02:25:11;99020.53;;;11.34;60.11
48964;BME280;34776;48.180;16.420;2023-04-25T02:27:36;99024.03;;;11.34;60.17
48964;BME280;34776;48.180;16.420;2023-04-25T02:30:02;99025.72;;;11.35;60.17
48964;BME280;34776;48.180;16.420;2023-04-25T02:32:28;99034.97;;;11.30;60.11
48964;BME280;34776;48.180;16.420;2023-04-25T02:34:53;99027.59;;;11.21;60.23
48964;BME280;34776;48.180;16.420;2023-04-25T02:37:19;99027.38;;;11.11;60.50
48964;BME280;34776;48.180;16.420;2023-04-25T02:39:44;99035.63;;;11.06;60.59
48964;BME280;34776;48.180;16.420;2023-04-25T02:42:10;99014.56;;;11.03;60.79
48964;BME280;34776;48.180;16.420;2023-04-25T02:44:35;99019.03;;;11.03;61.04
48964;BME280;34776;48.180;16.420;2023-04-25T02:47:01;99019.31;;;10.98;61.37
48964;BME280;34776;48.180;16.420;2023-04-25T02:49:26;99017.53;;;10.99;61.44
48964;BME280;34776;48.180;16.420;2023-04-25T02:51:51;99017.72;;;10.95;61.63
48964;BME280;34776;48.180;16.420;2023-04-25T02:54:17;99023.03;;;10.95;61.72
48964;BME280;34776;48.180;16.420;2023-04-25T02:56:42;99018.88;;;10.91;61.47
48964;BME280;34776;48.180;16.420;2023-04-25T02:59:07;99015.78;;;10.85;61.60
48964;BME280;34776;48.180;16.420;2023-04-25T03:01:33;99018.53;;;10.83;61.66
48964;BME280;34776;48.180;16.420;2023-04-25T03:03:58;99017.13;;;10.77;61.87
48964;BME280;34776;48.180;16.420;2023-04-25T03:06:23;99006.50;;;10.77;61.79
48964;BME280;34776;48.180;16.420;2023-04-25T03:08:49;99007.25;;;10.80;61.96
48964;BME280;34776;48.180;16.420;2023-04-25T03:11:14;99008.28;;;10.77;61.96
48964;BME280;34776;48.180;16.420;2023-04-25T03:13:39;99007.25;;;10.80;61.94
48964;BME280;34776;48.180;16.420;2023-04-25T03:16:05;99013.59;;;10.77;61.68
48964;BME280;34776;48.180;16.420;2023-04-25T03:18:30;99012.56;;;10.80;61.86
48964;BME280;34776;48.180;16.420;2023-04-25T03:20:56;99013.41;;;10.80;61.73
48964;BME280;34776;48.180;16.420;2023-04-25T03:23:21;99007.25;;;10.80;61.72
48964;BME280;34776;48.180;16.420;2023-04-25T03:25:46;99005.63;;;10.77;61.68
48964;BME280;34776;48.180;16.420;2023-04-25T03:28:12;99016.16;;;10.79;61.70
48964;BME280;34776;48.180;16.420;2023-04-25T03:30:37;99010.31;;;10.73;61.51
48964;BME280;34776;48.180;16.420;2023-04-25T03:33:02;99019.53;;;10.68;61.89
48964;BME280;34776;48.180;16.420;2023-04-25T03:35:28;99023.91;;;10.69;61.66
48964;BME280;34776;48.180;16.420;2023-04-25T03:37:53;99019.06;;;10.61;61.71
48964;BME280;34776;48.180;16.420;2023-04-25T03:40:19;99028.09;;;10.59;61.89
48964;BME280;34776;48.180;16.420;2023-04-25T03:42:44;99023.72;;;10.57;61.97
48964;BME280;34776;48.180;16.420;2023-04-25T03:45:09;99028.38;;;10.54;62.04
48964;BME280;34776;48.180;16.420;2023-04-25T03:47:35;99032.84;;;10.53;62.06
48964;BME280;34776;48.180;16.420;2023-04-25T03:50:00;99036.56;;;10.51;62.18
48964;BME280;34776;48.180;16.420;2023-04-25T03:52:27;99027.91;;;10.47;62.28
48964;BME280;34776;48.180;16.420;2023-04-25T03:54:52;99034.09;;;10.48;62.10
48964;BME280;34776;48.180;16.420;2023-04-25T03:57:17;99034.19;;;10.46;62.26
48964;BME280;34776;48.180;16.420;2023-04-25T03:59:43;99036.00;;;10.46;61.89
48964;BME280;34776;48.180;16.420;2023-04-25T04:02:09;99036.00;;;10.46;62.20
48964;BME280;34776;48.180;16.420;2023-04-25T04:04:34;99037.50;;;10.50;61.95
48964;BME280;34776;48.180;16.420;2023-04-25T04:07:00;99044.53;;;10.51;61.74
48964;BME280;34776;48.180;16.420;2023-04-25T04:09:25;99043.84;;;10.47;61.84
48964;BME280;34776;48.180;16.420;2023-04-25T04:11:52;99042.81;;;10.50;61.84
48964;BME280;34776;48.180;16.420;2023-04-25T04:14:18;99045.56;;;10.48;61.82
48964;BME280;34776;48.180;16.420;2023-04-25T04:16:43;99049.16;;;10.47;61.71
48964;BME280;34776;48.180;16.420;2023-04-25T04:19:08;99049.28;;;10.46;61.39
48964;BME280;34776;48.180;16.420;2023-04-25T04:21:34;99052.13;;;10.43;61.50
48964;BME280;34776;48.180;16.420;2023-04-25T04:23:59;99043.38;;;10.41;61.52
48964;BME280;34776;48.180;16.420;2023-04-25T04:26:25;99051.19;;;10.44;61.46
48964;BME280;34776;48.180;16.420;2023-04-25T04:28:51;99051.06;;;10.45;61.27
48964;BME280;34776;48.180;16.420;2023-04-25T04:31:17;99052.03;;;10.44;61.22
48964;BME280;34776;48.180;16.420;2023-04-25T04:33:44;99057.25;;;10.46;61.31
48964;BME280;34776;48.180;16.420;2023-04-25T04:36:11;99053.53;;;10.48;60.99
48964;BME280;34776;48.180;16.420;2023-04-25T04:38:36;99059.69;;;10.49;61.13
48964;BME280;34776;48.180;16.420;2023-04-25T04:41:02;99061.50;;;10.48;60.80
48964;BME280;34776;48.180;16.420;2023-04-25T04:43:28;99055.34;;;10.48;61.05
48964;BME280;34776;48.180;16.420;2023-04-25T04:45:55;99061.97;;;10.55;61.10
48964;BME280;34776;48.180;16.420;2023-04-25T04:48:23;99066.50;;;10.67;60.77
48964;BME280;34776;48.180;16.420;2023-04-25T04:50:49;99068.03;;;10.71;60.57
48964;BME280;34776;48.180;16.420;2023-04-25T04:53:14;99059.66;;;10.77;60.51
48964;BME280;34776;48.180;16.420;2023-04-25T04:55:39;99061.25;;;10.80;60.36
48964;BME280;34776;48.180;16.420;2023-04-25T04:58:06;99054.53;;;10.74;59.90
48964;BME280;34776;48.180;16.420;2023-04-25T05:00:32;99056.34;;;10.74;60.05
48964;BME280;34776;48.180;16.420;2023-04-25T05:02:58;99055.66;;;10.70;60.05
48964;BME280;34776;48.180;16.420;2023-04-25T05:05:23;99064.59;;;10.69;60.04
48964;BME280;34776;48.180;16.420;2023-04-25T05:07:49;99055.88;;;10.67;59.88
48964;BME280;34776;48.180;16.420;2023-04-25T05:10:14;99061.59;;;10.61;59.66
48964;BME280;34776;48.180;16.420;2023-04-25T05:12:40;99057.78;;;10.51;59.70
48964;BME280;34776;48.180;16.420;2023-04-25T05:15:06;99057.25;;;10.46;59.83
48964;BME280;34776;48.180;16.420;2023-04-25T05:17:31;99052.88;;;10.45;59.94
48964;BME280;34776;48.180;16.420;2023-04-25T05:19:58;99055.72;;;10.42;59.85
48964;BME280;34776;48.180;16.420;2023-04-25T05:22:23;99063.13;;;10.36;59.95
48964;BME280;34776;48.180;16.420;2023-04-25T05:24:48;99068.25;;;10.40;60.02
48964;BME280;34776;48.180;16.420;2023-04-25T05:27:16;99068.44;;;10.36;60.04
48964;BME280;34776;48.180;16.420;2023-04-25T05:29:42;99068.44;;;10.36;60.34
48964;BME280;34776;48.180;16.420;2023-04-25T05:32:07;99071.84;;;10.39;60.31
48964;BME280;34776;48.180;16.420;2023-04-25T05:34:33;99071.72;;;10.26;60.52
48964;BME280;34776;48.180;16.420;2023-04-25T05:36:58;99070.97;;;10.24;60.75
48964;BME280;34776;48.180;16.420;2023-04-25T05:39:24;99077.88;;;10.26;60.71
48964;BME280;34776;48.180;16.420;2023-04-25T05:41:49;99067.25;;;10.26;60.85
48964;BME280;34776;48.180;16.420;2023-04-25T05:44:14;99068.81;;;10.30;60.67
48964;BME280;34776;48.180;16.420;2023-04-25T05:46:41;99062.06;;;10.39;60.77
48964;BME280;34776;48.180;16.420;2023-04-25T05:49:06;99065.78;;;10.51;60.56
48964;BME280;34776;48.180;16.420;2023-04-25T05:51:32;99063.66;;;10.56;60.52
48964;BME280;34776;48.180;16.420;2023-04-25T05:53:57;99058.94;;;10.61;60.50
48964;BME280;34776;48.180;16.420;2023-04-25T05:56:22;99064.78;;;10.66;60.04
48964;BME280;34776;48.180;16.420;2023-04-25T05:58:48;99063.06;;;10.80;60.02
48964;BME280;34776;48.180;16.420;2023-04-25T06:01:13;99057.69;;;10.94;59.71
48964;BME280;34776;48.180;16.420;2023-04-25T06:03:39;99058.03;;;11.02;59.50
48964;BME280;34776;48.180;16.420;2023-04-25T06:06:08;99061.81;;;11.12;59.26
48964;BME280;34776;48.180;16.420;2023-04-25T06:08:33;99061.00;;;11.25;58.82
48964;BME280;34776;48.180;16.420;2023-04-25T06:10:58;99053.59;;;11.30;58.56
48964;BME280;34776;48.180;16.420;2023-04-25T06:13:24;99057.66;;;11.48;58.64
48964;BME280;34776;48.180;16.420;2023-04-25T06:15:49;99041.28;;;11.54;57.85
48964;BME280;34776;48.180;16.420;2023-04-25T06:18:14;99049.59;;;11.63;57.37
48964;BME280;34776;48.180;16.420;2023-04-25T06:20:40;99047.09;;;11.74;57.47
48964;BME280;34776;48.180;16.420;2023-04-25T06:23:05;99041.56;;;11.90;56.79
48964;BME280;34776;48.180;16.420;2023-04-25T06:25:30;99057.75;;;12.12;56.79
48964;BME280;34776;48.180;16.420;2023-04-25T06:27:56;99039.41;;;12.33;55.96
48964;BME280;34776;48.180;16.420;2023-04-25T06:30:21;99040.84;;;12.63;54.96
48964;BME280;34776;48.180;16.420;2023-04-25T06:32:50;99046.34;;;13.34;54.16
48964;BME280;34776;48.180;16.420;2023-04-25T06:35:16;99042.03;;;16.60;48.15
48964;BME280;34776;48.180;16.420;2023-04-25T06:37:41;99029.16;;;20.37;41.94
48964;BME280;34776;48.180;16.420;2023-04-25T06:40:07;99029.72;;;21.34;37.70
48964;BME280;34776;48.180;16.420;2023-04-25T06:42:32;99032.78;;;21.63;36.97
48964;BME280;34776;48.180;16.420;2023-04-25T06:44:58;99021.91;;;22.13;36.70
48964;BME280;34776;48.180;16.420;2023-04-25T06:47:24;99018.06;;;21.82;36.84
48964;BME280;34776;48.180;16.420;2023-04-25T06:49:49;99013.16;;;22.66;35.24
48964;BME280;34776;48.180;16.420;2023-04-25T06:52:15;99021.22;;;25.02;33.67
48964;BME280;34776;48.180;16.420;2023-04-25T06:54:40;99007.34;;;26.33;31.11
48964;BME280;34776;48.180;16.420;2023-04-25T06:57:06;99009.16;;;26.96;30.42
48964;BME280;34776;48.180;16.420;2023-04-25T06:59:31;99001.75;;;28.18;29.76
48964;BME280;34776;48.180;16.420;2023-04-25T07:01:57;99001.84;;;29.53;27.56
48964;BME280;34776;48.180;16.420;2023-04-25T07:04:23;99000.25;;;29.70;26.62
48964;BME280;34776;48.180;16.420;2023-04-25T07:06:48;98999.28;;;29.58;26.90
48964;BME280;34776;48.180;16.420;2023-04-25T07:09:14;98986.13;;;30.61;25.47
48964;BME280;34776;48.180;16.420;2023-04-25T07:11:40;98992.59;;;30.48;24.06
48964;BME280;34776;48.180;16.420;2023-04-25T07:14:05;98993.38;;;30.11;24.32
48964;BME280;34776;48.180;16.420;2023-04-25T07:16:31;98999.59;;;29.75;24.83
48964;BME280;34776;48.180;16.420;2023-04-25T07:18:56;98988.78;;;30.49;23.49
48964;BME280;34776;48.180;16.420;2023-04-25T07:21:21;98991.50;;;31.04;23.43
48964;BME280;34776;48.180;16.420;2023-04-25T07:23:47;98982.06;;;31.42;23.25
48964;BME280;34776;48.180;16.420;2023-04-25T07:26:13;98991.63;;;31.40;22.85
48964;BME280;34776;48.180;16.420;2023-04-25T07:28:38;98989.31;;;31.79;23.01
48964;BME280;34776;48.180;16.420;2023-04-25T07:31:04;98980.50;;;32.47;21.84
48964;BME280;34776;48.180;16.420;2023-04-25T07:33:30;98975.34;;;32.39;21.63
48964;BME280;34776;48.180;16.420;2023-04-25T07:35:56;98971.91;;;31.96;21.44
48964;BME280;34776;48.180;16.420;2023-04-25T07:38:21;98975.94;;;32.53;21.57
48964;BME280;34776;48.180;16.420;2023-04-25T07:40:50;98972.50;;;32.58;21.09
48964;BME280;34776;48.180;16.420;2023-04-25T07:43:15;98976.16;;;32.63;20.86
48964;BME280;34776;48.180;16.420;2023-04-25T07:45:45;98961.69;;;32.68;18.44
48964;BME280;34776;48.180;16.420;2023-04-25T07:48:13;98965.81;;;32.53;20.63
48964;BME280;34776;48.180;16.420;2023-04-25T07:50:41;98967.75;;;32.18;20.14
48964;BME280;34776;48.180;16.420;2023-04-25T07:53:06;98965.31;;;31.98;20.96
48964;BME280;34776;48.180;16.420;2023-04-25T07:55:31;98961.25;;;32.47;20.70
48964;BME280;34776;48.180;16.420;2023-04-25T07:57:57;98962.25;;;33.56;19.49
48964;BME280;34776;48.180;16.420;2023-04-25T08:00:22;98965.63;;;34.31;18.99
48964;BME280;34776;48.180;16.420;2023-04-25T08:02:48;98957.50;;;34.41;18.52
48964;BME280;34776;48.180;16.420;2023-04-25T08:05:13;98961.19;;;33.11;19.36
48964;BME280;34776;48.180;16.420;2023-04-25T08:07:40;98951.97;;;32.01;20.35
48964;BME280;34776;48.180;16.420;2023-04-25T08:10:07;98957.75;;;32.92;19.30
48964;BME280;34776;48.180;16.420;2023-04-25T08:12:33;98967.72;;;33.22;19.38
48964;BME280;34776;48.180;16.420;2023-04-25T08:14:58;98953.94;;;32.93;19.23
48964;BME280;34776;48.180;16.420;2023-04-25T08:17:25;98949.84;;;33.08;18.48
48964;BME280;34776;48.180;16.420;2023-04-25T08:19:50;98945.94;;;32.51;19.24
48964;BME280;34776;48.180;16.420;2023-04-25T08:22:16;98942.06;;;32.76;18.90
48964;BME280;34776;48.180;16.420;2023-04-25T08:24:41;98940.88;;;33.29;18.71
48964;BME280;34776;48.180;16.420;2023-04-25T08:27:07;98944.34;;;33.08;18.24
48964;BME280;34776;48.180;16.420;2023-04-25T08:29:33;98940.78;;;29.27;21.08
48964;BME280;34776;48.180;16.420;2023-04-25T08:31:58;98944.88;;;27.48;22.96
48964;BME280;34776;48.180;16.420;2023-04-25T08:34:24;98940.94;;;28.56;21.92
48964;BME280;34776;48.180;16.420;2023-04-25T08:36:50;98943.66;;;30.82;20.26
48964;BME280;34776;48.180;16.420;2023-04-25T08:39:16;98933.28;;;32.39;18.85
48964;BME280;34776;48.180;16.420;2023-04-25T08:41:41;98942.19;;;32.69;18.25
48964;BME280;34776;48.180;16.420;2023-04-25T08:44:09;98929.06;;;32.48;18.37
48964;BME280;34776;48.180;16.420;2023-04-25T08:46:37;98926.63;;;33.04;18.25
48964;BME280;34776;48.180;16.420;2023-04-25T08:49:03;98929.72;;;29.66;20.52
48964;BME280;34776;48.180;16.420;2023-04-25T08:51:31;98938.69;;;29.48;20.79
48964;BME280;34776;48.180;16.420;2023-04-25T08:54:10;98910.28;;;31.69;19.05
48964;BME280;34776;48.180;16.420;2023-04-25T08:56:38;98919.41;;;34.60;17.26
48964;BME280;34776;48.180;16.420;2023-04-25T08:59:05;98925.00;;;35.47;16.27
48964;BME280;34776;48.180;16.420;2023-04-25T09:01:36;98920.03;;;34.45;16.95
48964;BME280;34776;48.180;16.420;2023-04-25T09:04:01;98931.22;;;34.55;17.01
48964;BME280;34776;48.180;16.420;2023-04-25T09:06:29;98921.59;;;34.36;16.96
48964;BME280;34776;48.180;16.420;2023-04-25T09:09:01;98924.84;;;33.94;16.84
48964;BME280;34776;48.180;16.420;2023-04-25T09:11:27;98932.41;;;33.65;17.34
48964;BME280;34776;48.180;16.420;2023-04-25T09:14:19;98937.53;;;28.67;19.95
48964;BME280;34776;48.180;16.420;2023-04-25T09:19:31;98929.06;;;22.60;26.99
48964;BME280;34776;48.180;16.420;2023-04-25T09:21:58;98941.16;;;21.77;28.73
48964;BME280;34776;48.180;16.420;2023-04-25T09:26:57;98935.28;;;20.48;30.38
48964;BME280;34776;48.180;16.420;2023-04-25T09:29:34;98942.00;;;19.32;32.03
48964;BME280;34776;48.180;16.420;2023-04-25T09:37:26;98964.69;;;17.82;35.38
48964;BME280;34776;48.180;16.420;2023-04-25T09:39:57;98971.41;;;17.49;35.54
48964;BME280;34776;48.180;16.420;2023-04-25T09:42:25;98978.31;;;17.42;35.85
48964;BME280;34776;48.180;16.420;2023-04-25T09:44:53;98969.28;;;16.84;37.66
48964;BME280;34776;48.180;16.420;2023-04-25T09:47:29;98968.91;;;16.49;38.78
48964;BME280;34776;48.180;16.420;2023-04-25T09:49:55;98974.19;;;16.29;39.85
48964;BME280;34776;48.180;16.420;2023-04-25T09:52:22;98975.28;;;16.17;40.76
48964;BME280;34776;48.180;16.420;2023-04-25T09:54:49;98983.34;;;16.17;40.79
48964;BME280;34776;48.180;16.420;2023-04-25T09:57:18;98978.53;;;16.61;40.61
48964;BME280;34776;48.180;16.420;2023-04-25T10:05:50;98980.56;;;17.66;38.10
48964;BME280;34776;48.180;16.420;2023-04-25T10:08:17;98977.38;;;18.00;37.82
48964;BME280;34776;48.180;16.420;2023-04-25T10:10:44;98978.00;;;17.84;37.95
48964;BME280;34776;48.180;16.420;2023-04-25T10:13:10;98974.31;;;17.85;37.72
48964;BME280;34776;48.180;16.420;2023-04-25T10:38:48;98970.00;;;16.36;37.00
48964;BME280;34776;48.180;16.420;2023-04-25T10:46:29;98956.06;;;16.12;37.04
48964;BME280;34776;48.180;16.420;2023-04-25T10:59:17;98937.88;;;16.75;35.92
48964;BME280;34776;48.180;16.420;2023-04-25T11:01:44;98934.25;;;17.35;36.29
48964;BME280;34776;48.180;16.420;2023-04-25T11:12:04;98904.97;;;19.78;33.42
48964;BME280;34776;48.180;16.420;2023-04-25T11:14:30;98896.81;;;19.43;33.39
48964;BME280;34776;48.180;16.420;2023-04-25T11:16:56;98897.28;;;19.39;34.32
48964;BME280;34776;48.180;16.420;2023-04-25T11:21:56;98883.66;;;19.66;34.53
48964;BME280;34776;48.180;16.420;2023-04-25T11:29:32;98875.66;;;20.68;32.61
48964;BME280;34776;48.180;16.420;2023-04-25T11:31:58;98882.00;;;20.51;32.87
48964;BME280;34776;48.180;16.420;2023-04-25T11:34:24;98890.81;;;19.76;32.94
48964;BME280;34776;48.180;16.420;2023-04-25T11:36:51;98948.34;;;18.86;34.60
48964;BME280;34776;48.180;16.420;2023-04-25T11:39:18;98950.25;;;17.93;37.27
48964;BME280;34776;48.180;16.420;2023-04-25T11:41:43;98961.22;;;16.94;39.62
48964;BME280;34776;48.180;16.420;2023-04-25T11:44:09;98973.03;;;16.22;41.37
48964;BME280;34776;48.180;16.420;2023-04-25T11:46:34;99006.19;;;15.37;43.71
48964;BME280;34776;48.180;16.420;2023-04-25T11:49:00;99019.22;;;14.20;47.26
48964;BME280;34776;48.180;16.420;2023-04-25T11:51:26;99027.91;;;13.31;50.13
48964;BME280;34776;48.180;16.420;2023-04-25T11:53:51;99015.41;;;12.83;52.12
48964;BME280;34776;48.180;16.420;2023-04-25T11:56:17;99003.94;;;12.70;52.74
48964;BME280;34776;48.180;16.420;2023-04-25T11:58:59;99000.81;;;12.52;54.91
48964;BME280;34776;48.180;16.420;2023-04-25T12:01:27;98992.94;;;12.37;54.29
48964;BME280;34776;48.180;16.420;2023-04-25T12:03:52;98991.66;;;12.30;54.65
48964;BME280;34776;48.180;16.420;2023-04-25T12:06:18;98989.03;;;12.17;55.39
48964;BME280;34776;48.180;16.420;2023-04-25T12:09:20;98989.13;;;12.29;57.64
48964;BME280;34776;48.180;16.420;2023-04-25T12:11:53;98979.94;;;12.46;56.17
48964;BME280;34776;48.180;16.420;2023-04-25T12:16:56;98977.25;;;13.53;53.46
48964;BME280;34776;48.180;16.420;2023-04-25T12:19:22;98964.94;;;14.20;51.50
48964;BME280;34776;48.180;16.420;2023-04-25T12:21:49;98971.94;;;14.66;50.18
48964;BME280;34776;48.180;16.420;2023-04-25T12:29:23;98957.34;;;16.58;46.51
48964;BME280;34776;48.180;16.420;2023-04-25T12:31:50;98956.41;;;17.17;45.68
48964;BME280;34776;48.180;16.420;2023-04-25T12:34:16;98950.22;;;17.27;44.63
48964;BME280;34776;48.180;16.420;2023-04-25T12:39:22;98944.38;;;17.51;42.45
48964;BME280;34776;48.180;16.420;2023-04-25T12:41:49;98944.63;;;17.57;42.99
48964;BME280;34776;48.180;16.420;2023-04-25T12:44:15;98954.34;;;17.78;42.39
48964;BME280;34776;48.180;16.420;2023-04-25T12:51:51;98936.69;;;17.85;41.85
48964;BME280;34776;48.180;16.420;2023-04-25T12:56:52;98935.22;;;18.56;40.39
48964;BME280;34776;48.180;16.420;2023-04-25T13:17:24;98913.72;;;19.10;37.56
48964;BME280;34776;48.180;16.420;2023-04-25T13:32:45;98925.09;;;18.85;35.88
48964;BME280;34776;48.180;16.420;2023-04-25T13:35:13;98913.72;;;18.28;35.59
48964;BME280;34776;48.180;16.420;2023-04-25T13:40:41;98926.28;;;18.37;37.05
48964;BME280;34776;48.180;16.420;2023-04-25T13:50:51;98932.13;;;18.96;34.43
48964;BME280;34776;48.180;16.420;2023-04-25T14:03:37;98925.13;;;19.21;34.06
48964;BME280;34776;48.180;16.420;2023-04-25T14:08:38;98935.25;;;18.92;35.25
48964;BME280;34776;48.180;16.420;2023-04-25T14:11:04;98931.38;;;18.86;35.19
48964;BME280;34776;48.180;16.420;2023-04-25T14:13:29;98948.13;;;18.98;35.20
48964;BME280;34776;48.180;16.420;2023-04-25T14:15:55;98942.75;;;18.70;35.04
48964;BME280;34776;48.180;16.420;2023-04-25T14:18:20;98942.81;;;18.60;35.07
48964;BME280;34776;48.180;16.420;2023-04-25T14:20:46;98944.78;;;18.40;35.91
48964;BME280;34776;48.180;16.420;2023-04-25T14:23:12;98954.44;;;18.61;35.90
48964;BME280;34776;48.180;16.420;2023-04-25T14:25:38;98942.66;;;18.44;35.24
48964;BME280;34776;48.180;16.420;2023-04-25T14:28:03;98949.84;;;18.16;35.80
48964;BME280;34776;48.180;16.420;2023-04-25T14:30:28;98965.16;;;17.49;37.39
48964;BME280;34776;48.180;16.420;2023-04-25T14:32:54;98972.25;;;17.40;37.68
48964;BME280;34776;48.180;16.420;2023-04-25T14:35:19;98969.56;;;17.40;37.71
48964;BME280;34776;48.180;16.420;2023-04-25T14:37:45;98970.72;;;17.18;37.65
48964;BME280;34776;48.180;16.420;2023-04-25T14:40:11;98969.13;;;16.86;37.96
48964;BME280;34776;48.180;16.420;2023-04-25T14:42:38;98971.47;;;16.79;38.59
48964;BME280;34776;48.180;16.420;2023-04-25T14:45:05;98967.22;;;16.67;38.73
48964;BME280;34776;48.180;16.420;2023-04-25T14:47:31;98975.94;;;16.50;39.28
48964;BME280;34776;48.180;16.420;2023-04-25T14:49:57;98962.31;;;16.22;39.82
48964;BME280;34776;48.180;16.420;2023-04-25T14:52:22;98969.22;;;16.15;40.37
48964;BME280;34776;48.180;16.420;2023-04-25T14:54:48;98963.41;;;16.10;40.33
48964;BME280;34776;48.180;16.420;2023-04-25T14:57:14;98964.94;;;16.02;40.64
48964;BME280;34776;48.180;16.420;2023-04-25T14:59:39;98959.03;;;15.78;40.72
48964;BME280;34776;48.180;16.420;2023-04-25T15:02:05;98965.69;;;15.62;40.98
48964;BME280;34776;48.180;16.420;2023-04-25T15:04:31;98969.84;;;15.55;41.30
48964;BME280;34776;48.180;16.420;2023-04-25T15:06:56;98980.13;;;15.50;41.10
48964;BME280;34776;48.180;16.420;2023-04-25T15:09:22;98979.31;;;15.38;40.91